CDT,Max TemperatureF,Mean TemperatureF,Min TemperatureF,Max Dew PointF,MeanDew PointF,Min DewpointF,Max Humidity, Mean Humidity, Min Humidity, Max Sea Level PressureIn, Mean Sea Level PressureIn, Min Sea Level PressureIn, Max VisibilityMiles, Mean VisibilityMiles, Min VisibilityMiles, Max Wind SpeedMPH, Mean Wind SpeedMPH, Max Gust SpeedMPH,PrecipitationIn, CloudCover, Events, WindDirDegrees
2013-4-1,48,42,35,34,26,19,81,59,42,30.31,30.19,29.97,10,10,1,21,11,25,0.00,6,,48
2013-4-2,42,38,33,27,21,18,70,53,42,30.30,30.26,30.22,10,10,10,16,9,23,0.01,7,,84
2013-4-3,39,36,33,30,27,21,81,67,52,30.34,30.28,30.25,10,10,1,13,5,24,0.01,7,,79
2013-4-4,57,47,37,37,34,30,81,63,44,30.25,30.18,30.11,10,10,9,10,6,,0.00,3,,282
2013-4-5,64,50,37,41,37,32,87,60,40,30.16,30.04,29.82,10,10,10,26,13,33,0.00,0,,198
2013-4-6,73,63,53,46,42,37,67,50,31,29.88,29.79,29.72,10,10,10,28,20,40,0.00,0,,240
2013-4-7,71,60,50,55,46,37,82,63,43,29.88,29.79,29.67,10,10,4,20,10,26,0.00,4,,159
2013-4-8,73,65,57,57,55,54,88,74,57,29.72,29.66,29.61,10,10,7,20,12,26,0.00,7,,152
2013-4-9,71,50,30,57,49,27,87,74,60,29.95,29.70,29.57,10,9,2,30,18,40,0.69,8,Thunderstorm,212
2013-4-10,32,30,28,27,26,25,86,82,80,30.01,29.94,29.86,10,9,2,24,9,37,0.50,8,,322
2013-4-11,48,37,26,30,25,21,86,70,50,29.94,29.83,29.74,10,10,10,21,14,26,0.14,3,,310
2013-4-12,53,40,28,34,29,21,80,63,47,30.05,29.96,29.86,10,10,10,16,8,24,0.00,1,,309
2013-4-13,69,51,33,48,38,27,75,57,43,30.07,29.87,29.61,10,10,10,26,10,32,0.00,0,,151
2013-4-14,71,61,51,54,41,27,67,50,32,29.77,29.57,29.46,10,10,10,29,22,41,0.00,3,,228
2013-4-15,51,46,41,37,32,25,71,56,35,29.97,29.86,29.75,10,10,8,20,11,24,0.22,8,Thunderstorm,45
2013-4-16,46,42,39,36,30,27,81,63,53,30.10,30.03,29.94,10,10,4,21,14,30,0.01,8,,60
2013-4-17,44,42,39,41,38,36,87,84,81,30.01,29.83,29.70,10,5,1,25,12,32,0.45,8,Thunderstorm,17
2013-4-18,39,36,30,36,27,21,87,72,56,30.07,29.90,29.71,10,9,5,29,23,38,0.09,8,,329
2013-4-19,57,42,26,34,26,19,74,56,33,30.10,30.06,30.01,10,10,10,25,13,32,0.00,0,,308
2013-4-20,60,46,33,37,32,25,75,57,41,30.13,30.09,30.01,10,10,10,20,10,24,0.00,0,,115
2013-4-21,66,57,48,43,39,36,66,52,40,30.16,30.11,30.06,10,10,10,28,14,34,0.00,2,,172
2013-4-22,64,50,35,52,41,30,81,69,56,30.11,30.00,29.88,10,10,7,33,11,44,0.10,4,Thunderstorm,133
2013-4-23,35,32,30,30,27,25,87,80,70,30.26,30.14,30.04,10,9,2,31,23,40,0.40,8,Thunderstorm,355
2013-4-24,55,40,24,32,27,19,86,62,36,30.31,30.25,30.20,10,10,9,15,7,20,0.00,1,,257
2013-4-25,68,52,35,37,33,27,75,51,28,30.32,30.23,30.06,10,10,10,22,10,26,0.00,0,,205
2013-4-26,57,52,48,46,43,30,87,77,36,30.16,30.13,30.07,10,10,3,21,12,28,0.15,7,Thunderstorm,133
2013-4-27,62,54,46,48,46,43,93,80,59,30.17,30.11,30.03,10,9,2,15,8,20,0.01,5,,41
2013-4-28,77,60,44,57,49,39,88,69,47,30.03,29.91,29.78,10,9,2,22,11,25,0.00,1,,191
2013-4-29,84,70,55,59,54,46,88,58,39,29.81,29.73,29.62,10,10,9,29,14,39,0.00,0,,196
2013-4-30,82,72,62,59,53,46,72,52,39,29.79,29.71,29.67,10,10,10,30,23,39,0.00,0,,182